Skokie, IL (60076)

2:40 PM CDT en Septiembre 18, 2014 (GMT -0500)
Skokie | Change Station
CLOSE
Current Station
Estación meteorológica personal
Location: Skokie, IL
Altura: 627 ft
Estaciones meteorológicas cercanas

Alt 627 ft 42.03 °N, 87.73 °W | Updated 14 minutes ago

Parcialmente nublado
Parcialmente nublado
64.6 ° F
Sensación térmica 64.6 ° F
N
2.7
Viento Variable Viento desde Este

Hoy
Alta -- | Baja -- ° F
--% Posibilidad de precipitaciones
Ayer
Alta -- | Baja -- ° F
Precip. -- pul
6:34 AM 6:55 PM
Creciente menguante, 25% visible
Presión 30.13 pul
Visibilidad 10.0 Millas
Nubes Nubes dispersas 2900 ft
Punto de rocío 58 ° F
Humedad 79%
Precipitaciones 0.00 pul
Espesor de la nieve No disponible.
UV 6 de una escala de 12
Polen 4.40 de una escala de 12
Ozono Buena
PM2.5 Moderada
Flu Activity No disponible.
METAR KORD 181851Z 05009KT 10SM SCT029 20/12 A3013 RMK AO2 SLP202 T02000122 $

More Conditions Fewer Conditions

Presión 30.13 pul
Visibilidad 10.0 Millas
Nubes Nubes dispersas 2900 ft
Punto de rocío 58 ° F
Humedad 79%
Precipitaciones 0.00 pul
Espesor de la nieve No disponible.
UV 6 de una escala de 12
Polen 4.40 de una escala de 12
Ozono Buena
PM2.5 Moderada
Flu Activity No disponible.
METAR KORD 181851Z 05009KT 10SM SCT029 20/12 A3013 RMK AO2 SLP202 T02000122 $

More Conditions Fewer Conditions

10-Day Weather Forecast

Almanac

Astronomía

Sep. 18, 2014 Salida Puesta
Hora real 6:34 AM CDT 6:55 PM CDT
Crepúsculo civil 6:06 AM CDT 7:23 PM CDT
Crepúsculo náutico 5:33 AM CDT 7:55 PM CDT
Crepúsculo astronómico 4:59 AM CDT 8:29 PM CDT
Luna 1:21 AM CDT 3:49 PM CDT
Horas de luz 13h 16m
Horas de luz
12h 21m
Tomorrow will be 2m 48s shorter.
Creciente menguante, 25% of the Moon is Illuminated
Hoy
Creciente menguante
Sep 24
Nueva
Oct 1
Cuarto creciente
Oct 8
Luna llena
Oct 15
Cuarto menguante

Extremos de hoy

Máximos del estado Bajos del estado

Community

WunderPhotos

Upload Photos

1,754,421 ¡fotos cargadas!

WunderBlogs® & News

By Dr. Jeff Masters
Director of Meteorology, Weather Underground
By Kari Strenfel
Meteorologist, Weather Underground
By Christopher C. Burt
Weather Historian, Weather Underground
September 18, 2014
September 18, 2014
September 18, 2014

Nearby

Calidad del aire

  Calidad del aire Índice AQ Contaminante
Ayer Moderada
PM2.5
Ayer Buena
OZONE
Real Moderada
PM2.5
Real Buena
OZONE
Jueves Moderada
PM2.5
Viernes Moderada
PM2.5

Grosos de nieve

Estación Profundido Altura
No tenemos constancia de nieve nueva.

Actividad de terremotos

Ciudad Distance Mag. Tiempo y dato
No hay informes recientes de la actividad sísmica.
Magnitud mínima muestra es 2,5.

Temperaturas de aguas costeras

Lugar Temperatura
Sin partes meteorológicos de las estaciones

Estaciones meteorológicas cercanas